Time;durP1;ratioP1;P1;durP2;ratioP2;P2;SDS_P1;SDS_P2;PMS_P1;PMS_P2;Temp;Humidity;BMP_temperature;BMP_pressure;BME280_temperature;BME280_humidity;BME280_pressure;Samples;Min_cycle;Max_cycle;Signal;HPM_P1;HPM_P2
2021/12/06 00:01:41;;;;;;;1.47;1.47;;;;;;;-6.13;66.70;102587.69;6389532;27;20223;-73
2021/12/06 00:04:47;;;;;;;1.50;1.50;;;;;;;-6.08;67.02;102583.03;6389162;27;20273;-73
2021/12/06 00:07:52;;;;;;;1.87;1.87;;;;;;;-5.87;66.34;102574.09;6389390;27;20190;-73
2021/12/06 00:10:56;;;;;;;1.60;1.60;;;;;;;-5.94;65.34;102581.50;6389409;27;20215;-73
2021/12/06 00:14:02;;;;;;;1.50;1.50;;;;;;;-5.90;65.93;102576.91;6388904;27;20252;-73
2021/12/06 00:17:16;;;;;;;1.80;1.73;;;;;;;-6.02;65.90;102574.81;6388559;27;20184;-73
2021/12/06 00:20:22;;;;;;;1.80;1.70;;;;;;;-6.17;66.43;102572.84;6387713;27;20365;-73
2021/12/06 00:23:28;;;;;;;1.60;1.50;;;;;;;-5.98;66.06;102579.03;6387819;27;20501;-73
2021/12/06 00:26:33;;;;;;;2.30;2.10;;;;;;;-6.31;65.97;102584.06;6387634;27;20215;-73
2021/12/06 00:29:38;;;;;;;1.40;1.40;;;;;;;-6.22;66.10;102575.69;6387423;27;20259;-73
2021/12/06 00:32:46;;;;;;;1.53;1.53;;;;;;;-6.60;67.38;102574.69;6388925;27;20216;-73
2021/12/06 00:35:55;;;;;;;1.73;1.63;;;;;;;-6.38;67.45;102570.19;6388543;27;20188;-73
2021/12/06 00:39:04;;;;;;;1.60;1.60;;;;;;;-6.29;67.31;102578.69;6388117;27;20253;-73
2021/12/06 00:42:10;;;;;;;1.20;1.20;;;;;;;-6.51;67.41;102574.31;6388401;27;20185;-73
2021/12/06 00:45:14;;;;;;;1.80;1.80;;;;;;;-6.30;66.99;102577.81;6369278;27;20232;-74
2021/12/06 00:48:21;;;;;;;1.83;1.60;;;;;;;-6.16;66.41;102580.72;6389132;27;20253;-73
2021/12/06 00:51:27;;;;;;;1.53;1.53;;;;;;;-6.29;66.41;102578.69;6360241;28;20420;-73
2021/12/06 00:54:34;;;;;;;1.77;1.77;;;;;;;-6.38;66.35;102570.19;6362247;28;20196;-73
2021/12/06 00:57:40;;;;;;;1.40;1.40;;;;;;;-6.47;67.24;102575.88;6344225;28;20200;-73
2021/12/06 01:00:47;;;;;;;1.50;1.50;;;;;;;-6.54;67.28;102574.44;6342861;28;20245;-73
2021/12/06 01:03:52;;;;;;;1.47;1.47;;;;;;;-6.47;66.36;102581.19;6344174;28;20215;-73
2021/12/06 01:06:58;;;;;;;1.83;1.60;;;;;;;-6.52;66.34;102580.53;6343688;28;20255;-73
2021/12/06 01:10:06;;;;;;;1.50;1.50;;;;;;;-6.77;67.52;102586.94;6361419;28;20495;-73
2021/12/06 01:13:14;;;;;;;1.57;1.57;;;;;;;-6.81;68.14;102572.09;6362468;28;20205;-73
2021/12/06 01:16:19;;;;;;;1.63;1.50;;;;;;;-6.92;67.60;102583.16;6361382;28;20488;-73
2021/12/06 01:19:28;;;;;;;1.37;1.37;;;;;;;-6.81;67.02;102575.63;6343663;28;20352;-73
2021/12/06 01:22:44;;;;;;;2.10;1.40;;;;;;;-6.81;67.05;102582.72;6344656;28;20318;-74
2021/12/06 01:25:58;;;;;;;1.20;1.20;;;;;;;-6.96;66.75;102578.91;6343218;28;20484;-74
2021/12/06 01:29:16;;;;;;;1.50;1.43;;;;;;;-6.91;67.42;102574.28;6362187;28;20191;-73
2021/12/06 01:32:37;;;;;;;1.50;1.50;;;;;;;-6.79;67.21;102568.44;6362544;28;20247;-73
2021/12/06 01:42:28;;;;;;;1.67;1.67;;;;;;;-6.64;66.73;102573.09;6343250;28;20394;-74
2021/12/06 01:45:34;;;;;;;3.47;1.80;;;;;;;-6.68;66.39;102576.84;6343170;28;20404;-73
2021/12/06 01:48:38;;;;;;;1.93;1.93;;;;;;;-6.75;66.67;102572.69;6343484;28;20562;-74
2021/12/06 01:51:44;;;;;;;1.37;1.37;;;;;;;-6.57;66.82;102568.38;6345333;28;20535;-73
2021/12/06 01:54:50;;;;;;;1.30;1.30;;;;;;;-6.85;67.20;102563.38;6370079;27;20204;-73
2021/12/06 01:57:56;;;;;;;1.83;1.83;;;;;;;-6.92;67.32;102551.31;6373426;27;20509;-73
2021/12/06 02:01:01;;;;;;;1.80;1.80;;;;;;;-6.92;67.65;102561.06;6407549;27;20280;-73
2021/12/06 02:04:11;;;;;;;1.57;1.57;;;;;;;-6.95;67.98;102548.78;6374220;27;20204;-74
2021/12/06 02:07:19;;;;;;;1.80;1.80;;;;;;;-6.96;67.82;102539.09;6392261;27;20212;-73
2021/12/06 02:10:29;;;;;;;2.00;2.00;;;;;;;-7.06;67.71;102543.91;6372975;27;20200;-74
2021/12/06 02:13:41;;;;;;;1.40;1.40;;;;;;;-7.08;67.91;102528.97;6373933;27;20200;-73
2021/12/06 02:17:00;;;;;;;1.50;1.50;;;;;;;-7.04;67.58;102530.59;6373037;27;20234;-74
2021/12/06 02:20:09;;;;;;;1.93;1.83;;;;;;;-7.04;68.05;102551.81;6390649;27;20482;-73
2021/12/06 02:23:15;;;;;;;1.37;1.37;;;;;;;-7.07;68.11;102546.63;6372776;27;20485;-73
2021/12/06 02:26:24;;;;;;;1.80;1.80;;;;;;;-7.07;68.08;102546.63;6406400;27;20275;-73
2021/12/06 02:29:29;;;;;;;5.03;1.67;;;;;;;-6.89;67.93;102540.56;6372582;27;20240;-73
2021/12/06 02:32:35;;;;;;;1.50;1.50;;;;;;;-7.01;68.49;102541.94;6406406;27;20202;-73
2021/12/06 02:35:39;;;;;;;1.30;1.30;;;;;;;-7.09;68.58;102543.19;6391750;27;20194;-74
2021/12/06 02:38:46;;;;;;;1.50;1.50;;;;;;;-7.01;68.47;102541.09;6406446;27;20420;-73
2021/12/06 02:41:53;;;;;;;1.73;1.73;;;;;;;-7.15;68.51;102527.50;6372815;27;20382;-72
2021/12/06 02:44:57;;;;;;;1.80;1.80;;;;;;;-7.39;68.63;102531.16;6390103;27;20404;-74
2021/12/06 02:48:05;;;;;;;1.50;1.50;;;;;;;-7.22;69.06;102518.09;6372112;27;20200;-73
2021/12/06 02:51:13;;;;;;;1.40;1.40;;;;;;;-7.01;68.68;102525.16;6358434;27;20303;-73
2021/12/06 02:54:21;;;;;;;1.20;1.20;;;;;;;-7.11;69.25;102524.66;6363487;28;20490;-73
2021/12/06 02:57:34;;;;;;;1.63;1.63;;;;;;;-7.21;68.42;102527.75;6346781;28;20205;-73
2021/12/06 03:00:41;;;;;;;1.70;1.70;;;;;;;-7.38;69.12;102530.25;6346122;28;20207;-73
2021/12/06 03:03:47;;;;;;;1.93;1.67;;;;;;;-7.20;68.47;102524.19;6346086;28;20200;-73
2021/12/06 03:06:54;;;;;;;2.73;1.90;;;;;;;-7.13;68.44;102525.66;6346317;28;20230;-73
2021/12/06 03:10:00;;;;;;;1.73;1.73;;;;;;;-7.18;68.67;102532.94;6346451;28;20200;-73
2021/12/06 03:13:06;;;;;;;2.00;2.00;;;;;;;-7.26;68.62;102529.72;6346490;28;20362;-72
2021/12/06 03:16:11;;;;;;;1.80;1.80;;;;;;;-7.38;67.97;102530.25;6364096;28;20278;-74
2021/12/06 03:19:16;;;;;;;1.97;1.87;;;;;;;-7.37;68.10;102529.31;6346505;28;20230;-72
2021/12/06 03:22:22;;;;;;;1.40;1.40;;;;;;;-7.14;67.66;102529.25;6346077;28;20230;-72
2021/12/06 03:25:32;;;;;;;2.67;1.77;;;;;;;-7.23;67.97;102532.28;6363354;28;20241;-72
2021/12/06 03:28:39;;;;;;;1.70;1.70;;;;;;;-7.24;68.38;102533.22;6380314;27;20284;-72
2021/12/06 03:31:46;;;;;;;1.70;1.70;;;;;;;-7.28;68.17;102528.94;6346158;28;20203;-73
2021/12/06 03:34:52;;;;;;;1.77;1.77;;;;;;;-7.16;67.31;102536.38;6344927;28;20202;-73
2021/12/06 03:37:57;;;;;;;1.70;1.70;;;;;;;-7.14;67.60;102527.44;6345593;28;20202;-73
2021/12/06 03:41:03;;;;;;;1.73;1.73;;;;;;;-7.24;66.93;102533.22;6362511;28;20202;-73
2021/12/06 03:44:08;;;;;;;1.50;1.50;;;;;;;-7.23;67.59;102540.22;6364095;28;20193;-73
2021/12/06 03:47:17;;;;;;;1.53;1.53;;;;;;;-7.09;67.10;102532.59;6397071;27;20218;-72
2021/12/06 03:50:22;;;;;;;1.57;1.57;;;;;;;-7.32;67.29;102530.00;6362000;28;20199;-73
2021/12/06 03:53:28;;;;;;;1.60;1.60;;;;;;;-7.27;67.02;102528.03;6361674;28;20231;-72
2021/12/06 03:56:40;;;;;;;1.13;1.13;;;;;;;-7.35;66.91;102527.47;6362101;28;20208;-72
2021/12/06 03:59:44;;;;;;;1.60;1.57;;;;;;;-7.27;66.84;102518.28;6362441;28;20199;-73
2021/12/06 04:02:51;;;;;;;1.57;1.57;;;;;;;-7.28;67.10;102518.34;6361254;28;20201;-72
2021/12/06 04:05:58;;;;;;;1.57;1.57;;;;;;;-7.04;66.83;102515.56;6378636;27;20387;-73
2021/12/06 04:09:07;;;;;;;1.77;1.77;;;;;;;-7.20;66.45;102518.88;6361677;28;20517;-72
2021/12/06 04:12:14;;;;;;;1.60;1.60;;;;;;;-7.29;66.63;102524.59;6362524;28;20204;-73
2021/12/06 04:15:19;;;;;;;1.40;1.40;;;;;;;-7.31;66.86;102531.72;6362354;28;20210;-72
2021/12/06 04:18:23;;;;;;;1.30;1.30;;;;;;;-7.28;67.27;102526.28;6378171;27;20203;-72
2021/12/06 04:21:28;;;;;;;1.63;1.63;;;;;;;-7.09;65.79;102527.28;6344291;28;20390;-72
2021/12/06 04:24:33;;;;;;;1.60;1.60;;;;;;;-7.16;65.64;102517.81;6363203;28;20263;-72
2021/12/06 04:27:40;;;;;;;1.80;1.70;;;;;;;-7.09;65.18;102519.31;6345064;28;20231;-72
2021/12/06 04:30:49;;;;;;;1.70;1.70;;;;;;;-7.18;65.10;102517.03;6344893;28;20208;-72
2021/12/06 04:33:54;;;;;;;1.37;1.37;;;;;;;-7.10;65.97;102515.78;6344724;28;20308;-72
2021/12/06 04:37:14;;;;;;;1.77;1.77;;;;;;;-7.29;65.14;102513.97;6344766;28;20240;-73
2021/12/06 04:40:19;;;;;;;1.40;1.40;;;;;;;-7.36;65.13;102509.81;6361507;28;20227;-73
2021/12/06 04:43:25;;;;;;;2.73;1.50;;;;;;;-7.20;65.10;102508.28;6361682;28;20208;-73
2021/12/06 04:46:30;;;;;;;1.50;1.50;;;;;;;-7.36;64.78;102509.81;6361142;28;20388;-73
2021/12/06 04:49:35;;;;;;;1.30;1.30;;;;;;;-7.26;64.06;102513.81;6361902;28;20200;-72
2021/12/06 04:52:41;;;;;;;1.30;1.30;;;;;;;-7.29;63.61;102503.38;6360263;28;20229;-72
2021/12/06 04:55:54;;;;;;;2.10;1.30;;;;;;;-7.30;63.67;102506.94;6361545;28;20200;-72
2021/12/06 04:59:06;;;;;;;1.50;1.50;;;;;;;-7.24;64.43;102496.09;6361077;28;20204;-72
2021/12/06 05:02:16;;;;;;;1.60;1.60;;;;;;;-7.23;63.82;102503.09;6360151;28;20200;-72
2021/12/06 05:05:24;;;;;;;1.40;1.40;;;;;;;-7.37;64.17;102500.16;6362399;28;20248;-73
2021/12/06 05:08:33;;;;;;;1.33;1.33;;;;;;;-7.38;65.68;102498.41;6344099;28;20286;-73
2021/12/06 05:11:42;;;;;;;1.40;1.40;;;;;;;-7.24;65.13;102501.38;6344817;28;20184;-73
2021/12/06 05:14:48;;;;;;;1.40;1.40;;;;;;;-7.42;65.59;102510.09;6377071;28;20455;-73
2021/12/06 05:17:52;;;;;;;1.50;1.50;;;;;;;-7.30;65.54;102501.63;6360864;28;20216;-72
2021/12/06 05:20:57;;;;;;;1.50;1.50;;;;;;;-7.27;65.56;102498.84;6360538;28;20553;-73
2021/12/06 05:24:02;;;;;;;1.20;1.20;;;;;;;-7.14;65.43;102502.72;6360114;28;20352;-73
2021/12/06 05:27:07;;;;;;;1.50;1.50;;;;;;;-7.49;66.06;102495.31;6361070;28;20262;-73
2021/12/06 05:30:16;;;;;;;2.93;1.90;;;;;;;-7.38;65.98;102493.13;6364414;28;20203;-73
2021/12/06 05:33:29;;;;;;;1.20;1.20;;;;;;;-7.45;66.00;102499.59;6366446;28;20206;-72
2021/12/06 05:36:34;;;;;;;1.63;1.63;;;;;;;-7.37;65.90;102479.78;6367484;28;20184;-73
2021/12/06 05:39:39;;;;;;;1.50;1.50;;;;;;;-7.26;65.75;102492.59;6366958;28;20241;-72
2021/12/06 05:42:44;;;;;;;1.50;1.50;;;;;;;-7.28;66.03;102499.78;6366061;28;20479;-74
2021/12/06 05:45:50;;;;;;;1.70;1.70;;;;;;;-7.22;66.06;102500.41;6365892;28;20365;-74
2021/12/06 05:48:55;;;;;;;2.13;1.97;;;;;;;-7.25;65.42;102505.81;6367300;28;20212;-74
2021/12/06 05:51:59;;;;;;;1.73;1.73;;;;;;;-7.23;65.29;102509.25;6366122;28;20235;-73
2021/12/06 05:55:05;;;;;;;1.47;1.47;;;;;;;-7.39;64.67;102512.59;6365765;28;20185;-74
2021/12/06 05:58:13;;;;;;;1.87;1.80;;;;;;;-7.28;65.10;102516.56;6365587;28;20189;-73
2021/12/06 06:01:18;;;;;;;1.70;1.63;;;;;;;-7.20;64.72;102508.28;6366900;28;20185;-73
2021/12/06 06:04:27;;;;;;;1.47;1.47;;;;;;;-7.23;64.98;102519.00;6366651;28;20190;-73
2021/12/06 06:07:31;;;;;;;2.67;1.57;;;;;;;-7.10;65.71;102509.63;6365381;28;20402;-73
2021/12/06 06:10:36;;;;;;;1.63;1.63;;;;;;;-7.11;65.95;102508.75;6366452;28;20184;-72
2021/12/06 06:13:40;;;;;;;1.40;1.40;;;;;;;-7.16;66.53;102509.88;6366665;28;20185;-73
2021/12/06 06:16:51;;;;;;;2.33;2.23;;;;;;;-7.07;66.56;102509.50;6366695;28;20184;-73
2021/12/06 06:19:58;;;;;;;1.73;1.73;;;;;;;-7.16;67.30;102505.44;6365376;28;20210;-74
2021/12/06 06:23:04;;;;;;;3.63;1.60;;;;;;;-7.20;67.86;102497.66;6365004;28;20496;-73
2021/12/06 06:26:09;;;;;;;1.70;1.70;;;;;;;-7.40;68.58;102501.16;6365279;28;20193;-73
2021/12/06 06:29:15;;;;;;;1.50;1.50;;;;;;;-7.42;69.04;102504.78;6365708;28;20219;-73
2021/12/06 06:32:21;;;;;;;2.10;2.00;;;;;;;-7.32;68.96;102499.06;6364490;28;20512;-73
2021/12/06 06:35:26;;;;;;;4.73;1.73;;;;;;;-7.32;69.71;102503.47;6365963;28;20191;-73
2021/12/06 06:38:30;;;;;;;1.93;1.83;;;;;;;-7.40;70.09;102503.81;6364513;28;20386;-73
2021/12/06 06:41:35;;;;;;;1.70;1.70;;;;;;;-7.35;69.78;102516.88;6365071;28;20185;-73
2021/12/06 06:44:40;;;;;;;1.93;1.93;;;;;;;-7.15;68.77;102508.94;6364872;28;20189;-74
2021/12/06 06:47:47;;;;;;;3.47;1.83;;;;;;;-7.32;69.21;102514.09;6365452;28;20269;-74
2021/12/06 06:50:51;;;;;;;3.40;2.13;;;;;;;-7.44;70.15;102511.91;6361146;28;20200;-73
2021/12/06 06:53:56;;;;;;;2.40;1.80;;;;;;;-7.36;70.60;102501.88;6361194;28;20225;-73
2021/12/06 06:57:00;;;;;;;1.43;1.43;;;;;;;-7.37;70.18;102505.47;6365135;28;20192;-73
2021/12/06 07:00:06;;;;;;;1.80;1.80;;;;;;;-7.42;70.60;102502.97;6363940;28;20187;-73
2021/12/06 07:03:18;;;;;;;1.73;1.73;;;;;;;-7.43;70.40;102495.09;6364948;28;20183;-73
2021/12/06 07:06:23;;;;;;;1.70;1.70;;;;;;;-7.39;70.35;102497.56;6364814;28;20247;-73
2021/12/06 07:09:27;;;;;;;2.40;2.20;;;;;;;-7.53;70.62;102499.91;6364798;28;20218;-73
2021/12/06 07:12:34;;;;;;;1.83;1.83;;;;;;;-7.52;70.20;102498.13;6363488;28;20472;-73
2021/12/06 07:15:39;;;;;;;1.90;1.90;;;;;;;-7.53;70.57;102493.75;6363557;28;20480;-73
2021/12/06 07:18:45;;;;;;;2.00;2.00;;;;;;;-7.68;70.19;102496.06;6363953;28;20236;-73
2021/12/06 07:21:50;;;;;;;2.40;2.27;;;;;;;-7.51;69.47;102502.50;6363369;28;20411;-73
2021/12/06 07:24:54;;;;;;;1.90;1.80;;;;;;;-7.55;69.41;102511.50;6363249;28;20183;-73
2021/12/06 07:27:59;;;;;;;1.60;1.60;;;;;;;-7.65;69.50;102501.25;6364257;28;20191;-73
2021/12/06 07:31:06;;;;;;;1.70;1.70;;;;;;;-7.67;69.00;102492.50;6364656;28;20280;-73
2021/12/06 07:34:13;;;;;;;1.97;1.97;;;;;;;-7.53;67.42;102496.41;6363949;28;20182;-73
2021/12/06 07:37:18;;;;;;;1.43;1.33;;;;;;;-7.88;67.51;102482.72;6363863;28;20342;-72
2021/12/06 07:40:22;;;;;;;1.57;1.57;;;;;;;-7.63;67.63;102487.94;6363975;28;20191;-73
2021/12/06 07:43:27;;;;;;;2.07;2.03;;;;;;;-7.67;67.39;102492.50;6364085;28;20183;-73
2021/12/06 07:46:32;;;;;;;6.13;2.10;;;;;;;-7.53;66.37;102485.78;6362787;28;20183;-73
2021/12/06 07:49:38;;;;;;;1.70;1.70;;;;;;;-7.64;66.49;102497.69;6362707;28;20431;-73
2021/12/06 07:53:01;;;;;;;1.77;1.77;;;;;;;-7.62;66.93;102490.53;6361787;28;20283;-73
2021/12/06 07:56:06;;;;;;;1.60;1.60;;;;;;;-7.67;67.39;102491.63;6363689;28;20188;-73
2021/12/06 07:59:11;;;;;;;1.50;1.50;;;;;;;-7.88;66.61;102482.72;6362746;28;20474;-73
2021/12/06 08:02:16;;;;;;;1.80;1.70;;;;;;;-7.87;67.39;102489.78;6363527;28;20221;-74
2021/12/06 08:05:33;;;;;;;1.60;1.60;;;;;;;-8.02;67.09;102495.66;6363893;28;20250;-73
2021/12/06 08:08:39;;;;;;;1.90;1.90;;;;;;;-7.97;67.65;102488.41;6363611;28;20215;-73
2021/12/06 08:11:43;;;;;;;1.70;1.70;;;;;;;-8.01;68.58;102494.72;6362874;28;20223;-73
2021/12/06 08:14:47;;;;;;;3.80;2.43;;;;;;;-7.64;67.79;102487.09;6363225;28;20183;-73
2021/12/06 08:17:52;;;;;;;1.97;1.97;;;;;;;-7.56;68.11;102483.25;6362004;28;20512;-73
2021/12/06 08:20:59;;;;;;;1.80;1.80;;;;;;;-7.51;67.50;102473.31;6363098;28;20187;-73
2021/12/06 08:24:05;;;;;;;1.63;1.63;;;;;;;-7.50;66.46;102477.72;6362106;28;20385;-72
2021/12/06 08:27:09;;;;;;;2.40;2.20;;;;;;;-7.67;66.46;102481.91;6363334;28;20206;-73
2021/12/06 08:30:16;;;;;;;1.60;1.60;;;;;;;-7.60;67.24;102486.97;6362914;28;20210;-73
2021/12/06 08:33:21;;;;;;;2.00;2.00;;;;;;;-7.48;65.65;102482.03;6362936;28;20229;-73
2021/12/06 08:36:27;;;;;;;1.97;1.87;;;;;;;-7.55;66.18;102485.00;6362982;28;20187;-73
2021/12/06 08:39:31;;;;;;;1.60;1.53;;;;;;;-7.47;66.02;102490.84;6362821;28;20271;-73
2021/12/06 08:42:35;;;;;;;1.77;1.77;;;;;;;-7.38;66.02;102482.50;6362838;28;20259;-73
2021/12/06 08:45:39;;;;;;;1.40;1.40;;;;;;;-7.44;66.10;102485.41;6363252;28;20182;-73
2021/12/06 08:48:45;;;;;;;1.83;1.77;;;;;;;-7.32;65.27;102484.91;6361532;28;20367;-74
2021/12/06 08:51:53;;;;;;;1.80;1.80;;;;;;;-7.32;64.89;102471.66;6361960;28;20227;-74
2021/12/06 08:54:58;;;;;;;1.80;1.70;;;;;;;-7.44;64.56;102472.16;6361558;28;20184;-73
2021/12/06 08:58:03;;;;;;;1.77;1.70;;;;;;;-7.52;65.34;102468.97;6361916;28;20214;-73
2021/12/06 09:01:09;;;;;;;1.80;1.80;;;;;;;-7.34;64.32;102468.19;6361383;28;20507;-74
2021/12/06 09:04:37;;;;;;;2.10;2.00;;;;;;;-7.46;64.40;102474.00;6362268;28;20184;-74
2021/12/06 09:07:43;;;;;;;1.50;1.50;;;;;;;-7.39;64.70;102480.78;6362721;28;20183;-73
2021/12/06 09:10:49;;;;;;;5.07;1.73;;;;;;;-7.49;64.69;102480.28;6361778;28;20245;-73
2021/12/06 09:13:55;;;;;;;1.90;1.90;;;;;;;-7.43;65.78;102468.59;6362144;28;20209;-74
2021/12/06 09:16:59;;;;;;;1.70;1.70;;;;;;;-7.33;65.75;102467.28;6362578;28;20190;-73
2021/12/06 09:20:06;;;;;;;1.90;1.90;;;;;;;-7.36;65.52;102455.00;6362707;28;20219;-73
2021/12/06 09:23:14;;;;;;;2.83;1.80;;;;;;;-7.48;66.16;102460.81;6361279;28;20215;-73
2021/12/06 09:26:19;;;;;;;2.07;2.07;;;;;;;-7.22;65.12;102462.41;6362253;28;20184;-72
2021/12/06 09:29:24;;;;;;;1.90;1.50;;;;;;;-7.16;65.42;102448.84;6361182;28;20212;-73
2021/12/06 09:32:28;;;;;;;1.77;1.70;;;;;;;-7.36;65.11;102451.47;6362593;28;20185;-73
2021/12/06 09:35:35;;;;;;;2.10;2.00;;;;;;;-7.29;65.20;102445.03;6361285;28;20382;-73
2021/12/06 09:38:43;;;;;;;1.77;1.70;;;;;;;-7.32;64.86;102453.09;6361202;28;20183;-74
2021/12/06 09:41:48;;;;;;;2.60;2.40;;;;;;;-7.33;65.18;102448.72;6362540;28;20188;-74
2021/12/06 09:44:53;;;;;;;5.33;1.90;;;;;;;-7.32;65.85;102451.31;6362455;28;20183;-73
2021/12/06 09:48:01;;;;;;;1.80;1.80;;;;;;;-7.14;66.08;102442.56;6362398;28;20191;-73
2021/12/06 09:51:10;;;;;;;1.60;1.50;;;;;;;-7.17;65.96;102444.50;6354903;28;20245;-73
2021/12/06 09:54:16;;;;;;;2.57;1.80;;;;;;;-7.00;65.14;102452.59;6360081;28;20190;-73
2021/12/06 09:57:20;;;;;;;1.70;1.60;;;;;;;-7.36;65.83;102448.84;6361009;28;20449;-73
2021/12/06 10:00:28;;;;;;;2.00;2.00;;;;;;;-7.19;65.75;102441.06;6360918;28;20241;-72
2021/12/06 10:03:33;;;;;;;1.50;1.50;;;;;;;-7.12;65.10;102445.16;6361834;28;20185;-73
2021/12/06 10:06:39;;;;;;;1.43;1.43;;;;;;;-7.03;65.01;102436.78;6360728;28;20248;-73
2021/12/06 10:09:45;;;;;;;1.63;1.63;;;;;;;-7.26;65.75;102428.94;6361481;28;20216;-73
2021/12/06 10:12:52;;;;;;;1.53;1.53;;;;;;;-7.25;66.17;102425.38;6360601;28;20400;-73
2021/12/06 10:15:57;;;;;;;1.40;1.40;;;;;;;-7.16;67.04;102419.66;6361423;28;20333;-73
2021/12/06 10:19:01;;;;;;;1.33;1.33;;;;;;;-7.01;64.65;102424.34;6365230;28;20184;-73
2021/12/06 10:22:06;;;;;;;1.57;1.57;;;;;;;-7.18;64.33;102416.22;6365059;28;20473;-72
2021/12/06 10:25:12;;;;;;;1.43;1.43;;;;;;;-7.08;64.60;102417.56;6366274;28;20185;-73
2021/12/06 10:28:39;;;;;;;1.50;1.50;;;;;;;-6.97;64.54;102409.13;6365966;28;20219;-73
2021/12/06 10:31:44;;;;;;;1.60;1.60;;;;;;;-6.98;64.49;102410.91;6364858;28;20563;-74
2021/12/06 10:34:51;;;;;;;1.97;1.87;;;;;;;-7.03;64.39;102404.94;6365143;28;20188;-73
2021/12/06 10:37:58;;;;;;;1.50;1.50;;;;;;;-6.85;64.21;102404.16;6366505;28;20191;-73
2021/12/06 10:41:07;;;;;;;1.87;1.87;;;;;;;-7.28;64.90;102399.00;6365279;28;20475;-74
2021/12/06 10:44:13;;;;;;;1.80;1.70;;;;;;;-7.12;65.05;102402.72;6364936;28;20216;-74
2021/12/06 10:47:17;;;;;;;1.47;1.47;;;;;;;-7.07;65.19;102398.94;6364772;28;20250;-73
2021/12/06 10:50:22;;;;;;;5.93;1.70;;;;;;;-7.15;64.61;102405.50;6365582;28;20216;-73
2021/12/06 10:53:31;;;;;;;1.97;1.83;;;;;;;-7.07;65.87;102398.94;6364615;28;20271;-73
2021/12/06 10:56:44;;;;;;;1.80;1.80;;;;;;;-6.88;64.53;102393.66;6364620;28;20199;-74
2021/12/06 10:59:48;;;;;;;2.20;2.10;;;;;;;-7.05;64.44;102396.22;6365231;28;20225;-74
2021/12/06 11:02:52;;;;;;;1.87;1.87;;;;;;;-7.02;64.41;102389.00;6363969;28;20197;-73
2021/12/06 11:06:02;;;;;;;1.90;1.90;;;;;;;-7.38;66.15;102397.66;6364233;28;20196;-73
2021/12/06 11:09:07;;;;;;;1.93;1.93;;;;;;;-7.35;66.84;102390.44;6364487;28;20219;-74
2021/12/06 11:12:20;;;;;;;2.17;2.13;;;;;;;-7.24;67.12;102396.13;6364973;28;20302;-73
2021/12/06 11:15:24;;;;;;;2.27;2.17;;;;;;;-7.08;67.42;102391.03;6365196;28;20293;-74
2021/12/06 11:18:42;;;;;;;2.10;1.70;;;;;;;-7.01;67.26;102384.56;6363926;28;20247;-73
2021/12/06 11:21:50;;;;;;;2.13;1.83;;;;;;;-7.04;67.37;102376.72;6364156;28;20195;-74
2021/12/06 11:24:55;;;;;;;1.83;1.83;;;;;;;-7.12;66.35;102377.06;6364394;28;20184;-73
2021/12/06 11:28:01;;;;;;;1.80;1.80;;;;;;;-7.00;67.20;102378.28;6364447;28;20188;-74
2021/12/06 11:31:06;;;;;;;2.13;1.60;;;;;;;-6.96;67.03;102369.28;6364737;28;20287;-73
2021/12/06 11:34:11;;;;;;;1.93;1.67;;;;;;;-6.88;66.75;102361.81;6364332;28;20185;-74
2021/12/06 11:37:21;;;;;;;1.97;1.87;;;;;;;-6.96;67.27;102369.28;6364669;28;20182;-74
2021/12/06 11:40:28;;;;;;;1.93;1.93;;;;;;;-6.95;67.08;102359.50;6364472;28;20186;-74
2021/12/06 11:43:39;;;;;;;2.00;2.00;;;;;;;-7.06;67.41;102363.50;6362817;28;20195;-74
2021/12/06 11:46:43;;;;;;;1.80;1.80;;;;;;;-6.93;67.60;102362.97;6363899;28;20252;-73
2021/12/06 11:49:50;;;;;;;1.83;1.73;;;;;;;-6.97;66.93;102362.25;6364055;28;20184;-73
2021/12/06 11:52:54;;;;;;;1.40;1.40;;;;;;;-6.90;66.89;102358.38;6363039;28;20433;-73
2021/12/06 11:56:00;;;;;;;1.53;1.53;;;;;;;-7.01;67.40;102360.66;6363692;28;20185;-73
2021/12/06 11:59:08;;;;;;;1.80;1.80;;;;;;;-6.99;67.87;102358.81;6363804;28;20185;-73
2021/12/06 12:02:12;;;;;;;1.90;1.90;;;;;;;-7.04;67.75;102350.19;6362851;28;20503;-73
2021/12/06 12:05:27;;;;;;;1.87;1.77;;;;;;;-6.84;66.70;102346.63;6363598;28;20188;-73
2021/12/06 12:08:33;;;;;;;1.60;1.60;;;;;;;-6.98;67.12;102341.94;6363595;28;20207;-73
2021/12/06 12:12:09;;;;;;;2.50;1.70;;;;;;;-7.09;67.63;102328.31;6362409;28;20211;-73
2021/12/06 12:15:17;;;;;;;1.93;1.83;;;;;;;-6.90;67.66;102342.47;6287112;28;20248;-73
2021/12/06 12:18:26;;;;;;;2.87;1.90;;;;;;;-7.21;68.18;102331.47;6362571;28;20199;-73
2021/12/06 12:21:30;;;;;;;1.70;1.70;;;;;;;-6.88;66.82;102322.00;6362308;28;20199;-73
2021/12/06 12:24:37;;;;;;;1.77;1.77;;;;;;;-7.09;68.10;102320.34;6363194;28;20253;-73
2021/12/06 12:27:51;;;;;;;1.50;1.50;;;;;;;-7.04;67.94;102323.66;6363323;28;20204;-73
2021/12/06 12:30:59;;;;;;;1.60;1.60;;;;;;;-7.13;68.08;102324.06;6361863;28;20192;-74
2021/12/06 12:34:04;;;;;;;1.87;1.77;;;;;;;-7.15;68.09;102317.97;6362379;28;20221;-74
2021/12/06 12:37:13;;;;;;;1.87;1.63;;;;;;;-7.15;67.96;102315.31;6362825;28;20190;-74
2021/12/06 12:40:20;;;;;;;4.13;1.90;;;;;;;-7.05;67.11;102311.31;6362459;28;20189;-73
2021/12/06 12:43:27;;;;;;;1.50;1.50;;;;;;;-6.95;66.92;102312.63;6363210;28;20189;-73
2021/12/06 12:46:37;;;;;;;1.73;1.70;;;;;;;-6.96;66.85;102305.59;6361824;28;20231;-74
2021/12/06 12:49:47;;;;;;;1.70;1.70;;;;;;;-6.88;67.02;102307.91;6362589;28;20460;-74
2021/12/06 12:52:55;;;;;;;1.67;1.67;;;;;;;-6.97;66.63;102311.84;6361819;28;20238;-73
2021/12/06 12:55:59;;;;;;;2.03;1.60;;;;;;;-6.84;66.75;102307.69;6361722;28;20192;-73
2021/12/06 12:59:31;;;;;;;1.50;1.50;;;;;;;-6.97;66.93;102303.88;6362061;28;20213;-73
2021/12/06 13:02:38;;;;;;;1.90;1.80;;;;;;;-7.03;66.21;102305.00;6361345;28;20189;-74
2021/12/06 13:05:43;;;;;;;1.93;1.90;;;;;;;-7.01;66.23;102302.31;6362578;28;20190;-74
2021/12/06 13:08:50;;;;;;;1.80;1.80;;;;;;;-6.92;66.31;102307.19;6362513;28;20185;-73
2021/12/06 13:12:02;;;;;;;2.27;2.17;;;;;;;-7.14;67.31;102311.75;6362499;28;20209;-73
2021/12/06 13:15:14;;;;;;;1.60;1.60;;;;;;;-7.10;67.76;102308.00;6361564;28;20476;-73
2021/12/06 13:18:33;;;;;;;2.53;2.43;;;;;;;-7.07;67.52;102302.56;6362791;28;20281;-74
2021/12/06 13:22:07;;;;;;;3.70;2.00;;;;;;;-7.12;67.78;102309.88;6362058;28;20201;-74
2021/12/06 13:25:14;;;;;;;2.13;2.13;;;;;;;-7.10;68.74;102308.00;6362236;28;20185;-73
2021/12/06 13:28:19;;;;;;;6.97;2.83;;;;;;;-6.99;68.54;102300.44;6361221;28;20209;-74
2021/12/06 13:31:25;;;;;;;2.10;2.00;;;;;;;-7.04;68.70;102299.78;6361241;28;20215;-73
2021/12/06 13:34:32;;;;;;;2.20;2.20;;;;;;;-7.04;68.23;102298.00;6362439;28;20185;-73
2021/12/06 13:37:39;;;;;;;4.70;2.50;;;;;;;-6.98;68.46;102302.13;6361830;28;20184;-73
2021/12/06 13:41:00;;;;;;;3.50;2.63;;;;;;;-6.97;68.99;102293.25;6362628;28;20196;-73
2021/12/06 13:44:08;;;;;;;3.40;3.10;;;;;;;-6.96;68.56;102295.00;6343337;28;20276;-73
2021/12/06 13:47:16;;;;;;;3.00;2.90;;;;;;;-6.86;68.56;102298.94;6361480;28;20280;-74
2021/12/06 13:50:27;;;;;;;2.53;2.53;;;;;;;-6.87;68.37;102299.88;6361149;28;20185;-74
2021/12/06 13:53:34;;;;;;;3.43;3.13;;;;;;;-6.90;68.25;102300.00;6367543;28;20286;-73
2021/12/06 13:56:42;;;;;;;4.93;2.93;;;;;;;-6.89;68.07;102296.44;6365882;28;20281;-74
2021/12/06 13:59:55;;;;;;;3.00;2.80;;;;;;;-7.06;68.53;102312.25;6365787;28;20375;-74
2021/12/06 14:03:01;;;;;;;3.20;3.00;;;;;;;-6.89;68.19;102301.72;6367074;28;20188;-74
2021/12/06 14:06:11;;;;;;;2.50;2.40;;;;;;;-7.04;68.04;102297.13;6365570;28;20352;-72
2021/12/06 14:09:17;;;;;;;2.57;2.40;;;;;;;-7.13;69.13;102308.13;6366722;28;20251;-73
2021/12/06 14:12:26;;;;;;;2.60;2.47;;;;;;;-7.02;68.58;102300.56;6365217;28;20278;-73
2021/12/06 14:15:41;;;;;;;3.03;2.70;;;;;;;-7.22;68.33;102304.13;6366457;28;20185;-74
2021/12/06 14:18:46;;;;;;;2.20;2.10;;;;;;;-7.34;68.79;102293.16;6365013;28;20381;-74
2021/12/06 14:21:58;;;;;;;3.10;2.50;;;;;;;-7.39;68.34;102295.16;6365200;28;20185;-73
2021/12/06 14:25:02;;;;;;;2.33;2.23;;;;;;;-7.32;68.58;102296.66;6366309;28;20191;-74
2021/12/06 14:28:11;;;;;;;2.60;2.40;;;;;;;-7.17;68.17;102295.97;6364810;28;20443;-73
2021/12/06 14:31:16;;;;;;;3.20;2.63;;;;;;;-7.18;67.41;102294.22;6365029;28;20185;-74
2021/12/06 14:34:22;;;;;;;2.77;2.60;;;;;;;-7.22;67.62;102276.75;6365710;28;20247;-74
2021/12/06 14:37:28;;;;;;;3.73;2.90;;;;;;;-7.43;67.76;102293.59;6366155;28;20191;-74